Strona główna
METAR-TAF:

METAR-TAF

Lotnisko :

Port lotniczy Svalbard

Longyearbyen, Norwegia

Szerokość geograficzna: 78-15N, Długość geograficzna: 015-28E, wysokość: 2 m

Aktualna obserwacja pogody

Raport powstał 39 minut temu, godzina 12:20 UTC
Wiatr 6 kt od zachód
Temperatura 7°C
Wilgotność 76%
Ciśnienie 1020 hPa
Widzialność 10 km lub więcej
Mało chmury na wysokości 1500 ft
Przerywane chmury na wysokości 2000 ft

METAR: ENSB 171220Z 26006KT 9999 FEW015 BKN020 07/03 Q1020 NOSIG RMK WIND 1400FT VRB03KT

czas: 14:59 (12:59 UTC)

Prognoza

Prognoza ważna od 17 godzina 12 UTC do 18 godzina 12 UTC
Wiatr 9 kt od zachodnio-południowy zachód
Widzialność 10 km lub więcej
Mało chmury na wysokości 1500 ft
Przerywane chmury na wysokości 2500 ft

TAF: ENSB 1712/1812 25009KT 9999 FEW015 BKN025

Obserwacja i prognoza pogody dla ponad 4000 lotnisk (raport METAR i TAF).

Dostępne stacje oznaczono żółtymi i czerwonymi punktami na mapie.

Najedź kursorem aby zobaczyć nazwę stacji.

Kliknij aby zobaczyć obserwacje i prognozy pogody.

Aby zmienić mapę: kliknij na zielony przycisk z czarnym krzyżykiem, aby powiększyć; na zielony przycisk z myślnikiem, aby pomniejszyć; na zielone strzałki, aby przejść do map sąsiednich.


METAR-TAF: